Airfield :
LOGIN :

Register | Disclaimer

   EN    FR    IT 

 










Legend :    VFR   Marginal VFR   IFR   Intensive IFR   Very Intensive IFR
Visi :
Ceiling :
>= 8 km
>= 3000ft
5 to 8 km
1000 to 3000 ft
1500m to 5 km
500 to 1000 ft
800 to 1500m
200 to 500 ft
< 800m
< 200 ft
Symbols :   Thunderstorms  Fog  Heavy snow  Heavy precipitations  Wind > 20 kt
SIGMETs :     Misc.  Thunderstorms  Icing  Turbulence  Mountain Waves  Volcanic Ashes






- Airport Elevation : 776 ft
- IATA code : RMS


ETAR - Ramstein Air Base

CURRENT METAR :
  • 140856Z AUTO 06006KT 9999 CLR 04/04 A2958 RMK AO2 SLP028 T00400036 51005 $

EXPIRED METARs :
  • 140756Z AUTO 07005KT 9999 CLR 02/02 A2958 RMK AO2 SLP029 T00150015 $
  • 140656Z AUTO 09003KT 9999 CLR 00/00 A2958 RMK AO2 SLP031 T00020002 $

TAF TAF ETAR
Valid from the 14 at 02:00 until the 15 at 08:00 UTC


140200Z 1402/1508 VRB06KT 9999 SCT015 BKN020 QNH2956INS
BECMG 1405/1406 11006KT 9999 SCT015 QNH2954INS
BECMG 1409/1410 VRB06KT 9999 SCT020 BKN080 QNH2949INS
BECMG 1421/1422 05009KT 9999 BKN020 QNH2940INS TX08/1412Z TN01/1406Z



MET'MAP, your aeronautical weather chart ! - Copyright ORBIFLY December 2007 - Disclaimer

ORBIFLY MET'MAP TEAM :

Programming & Development : Alexandra Zaïnal
Concept & Development : Baudouin d'Aumeries
Co-Development & Prog : Marc-Olivier Méhu
Technical & hardware support : Manuel Goepfert

Contact : metmap@orbifly.com




SOURCES & CREDITS :

   NOAA